Time;durP1;ratioP1;P1;durP2;ratioP2;P2;SDS_P1;SDS_P2;PMS_P1;PMS_P2;Temp;Humidity;BMP_temperature;BMP_pressure;BME280_temperature;BME280_humidity;BME280_pressure;Samples;Min_cycle;Max_cycle;Signal;HPM_P1;HPM_P2
2022/12/30 00:01:19;;;;;;;99.07;50.45;;;;;;;7.69;nan;95837.84;5047899;28;20743;-60
2022/12/30 00:03:46;;;;;;;106.53;53.70;;;;;;;7.77;nan;95841.13;5050339;28;20221;-59
2022/12/30 00:06:15;;;;;;;90.13;50.28;;;;;;;7.83;nan;95839.38;5047928;28;20213;-60
2022/12/30 00:08:48;;;;;;;95.53;51.05;;;;;;;7.85;nan;95846.97;5048961;28;20887;-59
2022/12/30 00:11:16;;;;;;;91.95;48.90;;;;;;;7.85;nan;95844.44;5049223;28;20701;-61
2022/12/30 00:33:21;;;;;;;78.10;45.45;;;;;;;7.80;nan;95857.13;5048863;28;20201;-60
2022/12/30 00:35:48;;;;;;;77.72;45.13;;;;;;;7.84;nan;95857.94;5044594;28;20251;-60
2022/12/30 00:38:15;;;;;;;80.78;45.05;;;;;;;7.93;nan;95847.69;5046796;28;20214;-60
2022/12/30 00:43:07;;;;;;;86.28;45.17;;;;;;;7.96;nan;95859.47;5048355;28;20237;-58
2022/12/30 00:43:28;;;;;;;87.75;46.75;;;;;;;7.79;nan;95863.03;5048746;28;20213;-60
2022/12/30 00:45:55;;;;;;;80.00;45.50;;;;;;;7.80;nan;95863.88;5048772;28;20218;-59
2022/12/30 00:56:36;;;;;;;76.30;42.42;;;;;;;7.46;nan;95854.06;5047185;28;20211;-60
2022/12/30 00:59:04;;;;;;;76.55;45.20;;;;;;;7.53;nan;95861.59;5046054;28;20263;-59
2022/12/30 01:01:31;;;;;;;87.15;47.17;;;;;;;7.57;nan;95858.19;5049103;28;20229;-59
2022/12/30 01:03:59;;;;;;;82.20;45.97;;;;;;;7.54;nan;95853.16;5048314;28;20220;-59
2022/12/30 01:06:26;;;;;;;81.10;44.33;;;;;;;7.61;nan;95859.84;5049040;28;20209;-58
2022/12/30 01:08:52;;;;;;;84.28;45.03;;;;;;;7.56;nan;95861.59;5047666;28;20667;-58
2022/12/30 01:11:19;;;;;;;88.43;46.83;;;;;;;7.61;nan;95864.91;5048533;28;20189;-59
2022/12/30 01:13:46;;;;;;;95.60;46.97;;;;;;;7.42;nan;95860.00;5048514;28;20745;-58
2022/12/30 01:16:15;;;;;;;89.32;48.35;;;;;;;7.27;nan;95849.19;5048914;28;20210;-58
2022/12/30 01:18:42;;;;;;;95.75;49.35;;;;;;;7.31;nan;95851.69;5046696;28;20209;-58
2022/12/30 01:21:10;;;;;;;94.97;49.15;;;;;;;7.38;nan;95843.19;5047574;28;20241;-60
2022/12/30 01:23:37;;;;;;;94.25;50.85;;;;;;;7.11;nan;95844.25;5047071;28;20221;-59
2022/12/30 01:26:07;;;;;;;94.53;50.53;;;;;;;7.09;nan;95855.22;5047822;28;20854;-58
2022/12/30 01:28:35;;;;;;;89.70;49.65;;;;;;;7.01;nan;95847.69;5047017;28;20208;-58
2022/12/30 01:31:05;;;;;;;102.50;49.70;;;;;;;6.95;nan;95832.56;5047183;28;20206;-60
2022/12/30 01:33:32;;;;;;;88.45;48.40;;;;;;;7.09;nan;95843.44;5047760;28;20233;-59
2022/12/30 01:35:59;;;;;;;92.35;49.03;;;;;;;6.88;nan;95797.28;5047729;28;20224;-60
2022/12/30 01:38:28;;;;;;;86.68;48.00;;;;;;;7.10;nan;95832.47;5046293;28;20259;-61
2022/12/30 01:40:55;;;;;;;78.50;47.47;;;;;;;7.11;nan;95833.31;5047971;28;20225;-60
2022/12/30 01:43:41;;;;;;;92.65;49.17;;;;;;;7.08;nan;95834.16;5048491;28;20201;-62
2022/12/30 01:46:08;;;;;;;84.97;47.88;;;;;;;7.14;nan;95833.28;5048302;28;20198;-58
2022/12/30 01:48:36;;;;;;;87.18;47.72;;;;;;;7.13;nan;95832.47;5046333;28;20635;-59
2022/12/30 01:51:09;;;;;;;85.00;46.90;;;;;;;7.18;nan;95843.34;5048409;28;20236;-58
2022/12/30 01:53:41;;;;;;;86.88;48.00;;;;;;;7.11;nan;95830.78;5048487;28;20255;-58
2022/12/30 01:56:12;;;;;;;85.38;46.67;;;;;;;7.34;nan;95846.59;5047620;28;20213;-59
2022/12/30 01:58:43;;;;;;;91.90;48.17;;;;;;;7.18;nan;95836.63;5047947;28;20203;-60
2022/12/30 02:01:10;;;;;;;96.57;48.72;;;;;;;7.03;nan;95840.09;5046656;28;20342;-59
2022/12/30 02:03:44;;;;;;;89.55;49.78;;;;;;;7.04;nan;95831.69;5047509;28;20302;-62
2022/12/30 02:06:12;;;;;;;88.70;47.72;;;;;;;7.18;nan;95819.75;5048686;28;20209;-58
2022/12/30 02:08:40;;;;;;;89.45;48.53;;;;;;;7.12;nan;95824.88;5047293;28;20198;-59
2022/12/30 02:11:07;;;;;;;89.25;48.63;;;;;;;7.05;nan;95825.78;5046466;28;20213;-59
2022/12/30 02:13:35;;;;;;;100.45;49.97;;;;;;;7.03;nan;95817.38;5046701;28;20204;-59
2022/12/30 02:16:37;;;;;;;94.47;48.50;;;;;;;7.05;nan;95830.81;5047775;28;20832;-58
2022/12/30 02:19:40;;;;;;;96.07;46.70;;;;;;;7.06;nan;95820.72;4998526;28;20726;-58
2022/12/30 02:22:15;;;;;;;90.05;49.08;;;;;;;7.05;nan;95829.13;5012449;28;20552;-59
2022/12/30 02:25:11;;;;;;;92.15;49.42;;;;;;;6.94;nan;95827.53;5045883;28;20205;-60
2022/12/30 02:27:59;;;;;;;88.97;48.97;;;;;;;7.12;nan;95827.41;5048056;28;20202;-59
2022/12/30 02:30:40;;;;;;;88.63;47.88;;;;;;;7.08;nan;95828.28;5045998;28;20220;-60
2022/12/30 02:33:22;;;;;;;91.45;49.28;;;;;;;7.07;nan;95831.66;5046888;28;20205;-58
2022/12/30 02:36:01;;;;;;;89.45;49.38;;;;;;;7.06;nan;95829.97;5047930;28;20216;-59
2022/12/30 02:38:38;;;;;;;86.78;47.92;;;;;;;6.89;nan;95831.81;5047685;28;20663;-60
2022/12/30 02:46:54;;;;;;;95.60;51.08;;;;;;;6.64;nan;95831.97;5046279;28;20716;-59
2022/12/30 02:49:24;;;;;;;89.28;49.78;;;;;;;6.59;nan;95823.56;5047070;28;20213;-59
2022/12/30 02:54:37;;;;;;;94.75;49.85;;;;;;;6.39;nan;95817.78;5046324;28;20205;-59
2022/12/30 02:57:27;;;;;;;94.65;51.20;;;;;;;6.32;nan;95814.47;5047457;28;20206;-59
2022/12/30 03:06:06;;;;;;;93.65;50.63;;;;;;;5.93;nan;95824.72;5047130;28;20256;-60
2022/12/30 03:08:44;;;;;;;85.88;48.33;;;;;;;5.94;nan;95818.84;5047213;28;20996;-58
2022/12/30 03:11:16;;;;;;;92.00;47.92;;;;;;;5.85;nan;95812.09;5046368;28;20205;-58
2022/12/30 03:13:52;;;;;;;95.35;49.17;;;;;;;5.87;nan;95824.72;5046859;28;20209;-59
2022/12/30 03:16:27;;;;;;;91.63;48.17;;;;;;;5.97;nan;95832.25;5047113;28;20204;-58
2022/12/30 03:18:56;;;;;;;92.60;49.45;;;;;;;5.93;nan;95830.63;5045877;28;20666;-59
2022/12/30 03:21:26;;;;;;;100.25;50.67;;;;;;;5.94;nan;95829.75;5045504;28;20272;-60
2022/12/30 03:29:31;;;;;;;86.32;47.50;;;;;;;6.09;nan;95834.75;5045669;28;20229;-59
2022/12/30 03:31:58;;;;;;;91.10;49.47;;;;;;;6.08;nan;95835.59;5045730;28;20639;-59
2022/12/30 03:34:25;;;;;;;91.50;46.67;;;;;;;5.94;nan;95827.22;5047849;28;20222;-59
2022/12/30 03:36:59;;;;;;;92.28;48.63;;;;;;;5.95;nan;95841.53;5050548;28;20202;-58
2022/12/30 03:39:31;;;;;;;87.10;47.95;;;;;;;5.97;nan;95836.47;5048624;28;20209;-59
2022/12/30 03:41:59;;;;;;;95.28;49.63;;;;;;;5.88;nan;95836.50;5049008;28;20314;-59
2022/12/30 03:44:26;;;;;;;91.18;48.80;;;;;;;5.83;nan;95839.00;5048778;28;20217;-59
2022/12/30 03:46:53;;;;;;;92.90;47.35;;;;;;;5.79;nan;95843.22;5050253;28;20201;-58
2022/12/30 03:49:20;;;;;;;90.00;47.30;;;;;;;5.71;nan;95836.50;5047887;28;20209;-59
2022/12/30 03:51:47;;;;;;;85.53;48.30;;;;;;;5.74;nan;95839.88;5049283;28;20200;-58
2022/12/30 03:54:15;;;;;;;88.82;49.20;;;;;;;5.65;nan;95839.06;5046799;28;20263;-58
2022/12/30 03:56:42;;;;;;;92.00;49.33;;;;;;;5.63;nan;95840.75;5050361;28;20205;-58
2022/12/30 03:59:09;;;;;;;98.72;50.33;;;;;;;5.55;nan;95842.44;5050771;28;20198;-59
2022/12/30 04:01:36;;;;;;;95.53;50.85;;;;;;;5.36;nan;95839.94;5050370;28;20602;-58
2022/12/30 04:04:02;;;;;;;92.43;50.58;;;;;;;5.44;nan;95850.84;5049502;28;20209;-58
2022/12/30 04:06:29;;;;;;;91.07;47.63;;;;;;;5.47;nan;95855.88;5049508;28;20324;-59
2022/12/30 04:08:56;;;;;;;88.57;50.00;;;;;;;5.46;nan;95858.41;5050539;28;20197;-59
2022/12/30 04:11:24;;;;;;;101.00;49.60;;;;;;;5.34;nan;95854.22;5050215;28;20197;-58
2022/12/30 04:13:51;;;;;;;94.78;52.50;;;;;;;5.32;nan;95865.16;5050299;28;20209;-61
2022/12/30 04:16:18;;;;;;;93.82;51.25;;;;;;;5.32;nan;95860.97;5049943;28;20216;-59
2022/12/30 04:18:45;;;;;;;94.53;49.83;;;;;;;5.24;nan;95857.59;5049722;28;20209;-59
2022/12/30 04:21:11;;;;;;;93.53;49.85;;;;;;;5.32;nan;95860.97;5049994;28;20884;-61
2022/12/30 04:23:38;;;;;;;97.78;52.38;;;;;;;5.01;nan;95841.63;5048397;28;20206;-59
2022/12/30 04:26:05;;;;;;;93.40;48.60;;;;;;;5.21;nan;95867.66;5048899;28;20626;-59
2022/12/30 04:28:33;;;;;;;90.45;48.10;;;;;;;5.23;nan;95870.19;5050254;28;20197;-61
2022/12/30 04:31:00;;;;;;;93.20;50.17;;;;;;;5.22;nan;95874.38;5051047;28;20264;-58
2022/12/30 04:33:26;;;;;;;93.75;51.72;;;;;;;5.23;nan;95871.03;5049809;28;20341;-58
2022/12/30 04:35:53;;;;;;;93.03;48.13;;;;;;;5.14;nan;95876.09;5048153;28;20429;-59
2022/12/30 04:38:20;;;;;;;93.72;50.10;;;;;;;5.23;nan;95878.59;5049938;28;20206;-58
2022/12/30 04:40:46;;;;;;;89.35;49.80;;;;;;;5.11;nan;95881.13;5049601;28;20726;-59
2022/12/30 04:43:13;;;;;;;90.53;49.38;;;;;;;5.17;nan;95873.56;5049643;28;20225;-59
2022/12/30 04:45:41;;;;;;;87.25;48.65;;;;;;;5.20;nan;95881.09;5048081;28;20209;-59
2022/12/30 04:48:08;;;;;;;90.80;48.92;;;;;;;5.16;nan;95881.13;5049118;28;20729;-61
2022/12/30 04:50:35;;;;;;;90.78;47.20;;;;;;;5.21;nan;95880.25;5050539;28;20202;-60
2022/12/30 04:53:02;;;;;;;85.55;47.80;;;;;;;5.20;nan;95881.09;5049837;28;20228;-58
2022/12/30 04:55:28;;;;;;;83.10;47.20;;;;;;;5.06;nan;95885.31;5048444;28;20216;-60
2022/12/30 04:57:55;;;;;;;82.40;47.28;;;;;;;5.18;nan;95887.00;5050245;28;20214;-59
2022/12/30 05:00:22;;;;;;;86.55;48.65;;;;;;;5.24;nan;95892.88;5049761;28;20198;-59
2022/12/30 05:02:50;;;;;;;91.00;48.55;;;;;;;5.19;nan;95888.69;5050295;28;20225;-59
2022/12/30 05:05:17;;;;;;;92.35;47.78;;;;;;;5.15;nan;95897.94;5048645;28;20684;-59
2022/12/30 05:07:44;;;;;;;98.15;48.35;;;;;;;4.90;nan;95898.72;5049832;28;20674;-58
2022/12/30 05:10:11;;;;;;;99.38;50.58;;;;;;;4.96;nan;95896.19;5050407;28;20262;-59
2022/12/30 05:12:37;;;;;;;86.03;46.70;;;;;;;5.05;nan;95896.22;5049697;28;20205;-60
2022/12/30 05:15:05;;;;;;;90.60;47.08;;;;;;;5.08;nan;95896.22;5049708;28;20554;-59
2022/12/30 05:17:31;;;;;;;94.32;49.33;;;;;;;5.09;nan;95902.94;5047435;28;20283;-59
2022/12/30 05:19:59;;;;;;;97.60;49.83;;;;;;;4.91;nan;95916.38;5049589;28;20478;-59
2022/12/30 05:22:26;;;;;;;83.95;46.03;;;;;;;4.98;nan;95907.13;5049105;28;20233;-60
2022/12/30 05:27:37;;;;;;;86.05;46.90;;;;;;;4.93;nan;95906.31;5047711;28;20591;-59
2022/12/30 05:30:04;;;;;;;98.70;49.97;;;;;;;4.84;nan;95903.75;5049241;28;20213;-59
2022/12/30 05:32:31;;;;;;;89.55;49.15;;;;;;;4.82;nan;95918.84;5049676;28;20209;-58
2022/12/30 05:34:59;;;;;;;90.00;48.05;;;;;;;4.87;nan;95916.34;5049386;28;20232;-59
2022/12/30 05:37:26;;;;;;;85.60;47.47;;;;;;;4.63;nan;95920.50;5046038;28;20701;-58
2022/12/30 05:39:53;;;;;;;97.55;50.90;;;;;;;4.62;nan;95918.81;5048783;28;20217;-59
2022/12/30 05:42:19;;;;;;;92.05;49.38;;;;;;;4.73;nan;95919.66;5048523;28;20226;-60
2022/12/30 05:44:46;;;;;;;87.50;46.75;;;;;;;4.77;nan;95923.88;5048701;28;20205;-60
2022/12/30 05:47:13;;;;;;;87.00;48.28;;;;;;;4.71;nan;95916.28;5047486;28;20228;-59
2022/12/30 05:49:39;;;;;;;90.72;47.47;;;;;;;4.85;nan;95933.13;5048364;28;20205;-62
2022/12/30 05:52:07;;;;;;;89.13;46.60;;;;;;;4.82;nan;95930.59;5049511;28;20201;-60
2022/12/30 05:54:34;;;;;;;98.20;47.90;;;;;;;4.59;nan;95930.53;5048742;28;20871;-59
2022/12/30 05:57:01;;;;;;;82.57;47.30;;;;;;;4.64;nan;95934.75;5046422;28;20221;-59
2022/12/30 05:59:27;;;;;;;79.25;45.70;;;;;;;4.67;nan;95928.91;5047147;28;20216;-59
2022/12/30 06:01:54;;;;;;;89.30;44.03;;;;;;;4.71;nan;95928.88;5047520;28;20987;-58
2022/12/30 06:04:21;;;;;;;98.43;45.88;;;;;;;4.67;nan;95934.78;5049158;28;20210;-59
2022/12/30 06:06:47;;;;;;;86.10;44.97;;;;;;;4.65;nan;95933.09;5048406;28;20229;-59
2022/12/30 06:09:16;;;;;;;98.53;50.00;;;;;;;4.68;nan;95935.63;5048220;28;20305;-59
2022/12/30 06:11:42;;;;;;;92.00;49.70;;;;;;;4.82;nan;95931.44;5047204;28;21445;-61
2022/12/30 06:14:10;;;;;;;98.40;49.40;;;;;;;4.78;nan;95912.97;5048069;28;20221;-58
2022/12/30 06:16:36;;;;;;;94.05;47.47;;;;;;;4.92;nan;95935.69;5046763;28;20201;-61
2022/12/30 06:19:03;;;;;;;101.55;47.35;;;;;;;4.94;nan;95934.00;5047857;28;22459;-60
2022/12/30 06:21:30;;;;;;;86.45;45.97;;;;;;;5.00;nan;95938.19;5048993;28;20244;-59
2022/12/30 06:23:57;;;;;;;93.35;47.42;;;;;;;5.09;nan;95934.03;5046957;28;20230;-58
2022/12/30 06:26:25;;;;;;;92.70;46.22;;;;;;;5.18;nan;95930.69;5047598;28;20216;-58
2022/12/30 06:28:51;;;;;;;86.05;46.00;;;;;;;5.20;nan;95931.50;5047068;28;20213;-58
2022/12/30 06:31:18;;;;;;;86.57;47.92;;;;;;;5.30;nan;95937.41;5047190;28;20201;-59
2022/12/30 06:33:45;;;;;;;86.47;48.47;;;;;;;5.24;nan;95933.19;5047855;28;20226;-59
2022/12/30 06:36:12;;;;;;;87.22;46.05;;;;;;;5.39;nan;95948.34;5047975;28;20206;-59
2022/12/30 06:38:39;;;;;;;93.05;49.80;;;;;;;5.44;nan;95945.81;5046738;28;20634;-59
2022/12/30 06:41:06;;;;;;;91.93;50.50;;;;;;;5.55;nan;95948.34;5047218;28;20283;-59
2022/12/30 06:43:34;;;;;;;93.68;50.83;;;;;;;5.67;nan;95943.31;5047742;28;20229;-58
2022/12/30 06:46:01;;;;;;;88.60;50.78;;;;;;;5.75;nan;95947.47;5046910;28;20208;-58
2022/12/30 06:48:27;;;;;;;82.80;50.13;;;;;;;5.85;nan;95950.84;5046612;28;20213;-58
2022/12/30 06:50:59;;;;;;;86.15;50.63;;;;;;;6.07;nan;95950.00;5048105;28;20332;-59
2022/12/30 06:53:26;;;;;;;93.43;50.75;;;;;;;6.13;nan;95944.94;5047282;28;20244;-59
2022/12/30 06:55:53;;;;;;;90.03;50.45;;;;;;;6.30;nan;95959.19;5048104;28;20213;-59
2022/12/30 06:58:20;;;;;;;86.15;48.13;;;;;;;6.45;nan;95961.66;5047074;28;20216;-59
2022/12/30 07:00:48;;;;;;;85.53;48.28;;;;;;;6.56;nan;95956.59;5044998;28;20216;-59
2022/12/30 07:03:14;;;;;;;81.82;46.72;;;;;;;6.73;nan;95963.25;5046321;28;20229;-59
2022/12/30 07:05:41;;;;;;;90.05;52.58;;;;;;;6.85;nan;95961.53;5047741;28;20201;-59
2022/12/30 07:08:08;;;;;;;101.38;53.13;;;;;;;7.08;nan;95950.44;5047921;28;20197;-60
2022/12/30 07:10:35;;;;;;;90.57;50.00;;;;;;;7.36;nan;95957.84;5047199;28;20197;-61
2022/12/30 07:13:01;;;;;;;91.38;51.95;;;;;;;7.59;nan;95958.53;5046456;28;20206;-58
2022/12/30 07:15:28;;;;;;;99.57;54.53;;;;;;;7.62;nan;95937.44;5046572;28;20638;-58
2022/12/30 07:17:56;;;;;;;91.07;55.00;;;;;;;7.91;nan;95958.25;5046565;28;20702;-59
2022/12/30 07:20:23;;;;;;;100.28;53.95;;;;;;;8.23;nan;95960.47;5046830;28;20201;-58
2022/12/30 07:22:50;;;;;;;96.30;51.58;;;;;;;9.05;nan;95971.38;5046609;28;20240;-59
2022/12/30 07:25:17;;;;;;;93.00;51.58;;;;;;;10.52;nan;95960.56;5046772;28;20232;-62
2022/12/30 07:27:43;;;;;;;77.82;46.65;;;;;;;11.77;nan;95957.91;5047118;28;20725;-59
2022/12/30 07:30:11;;;;;;;81.85;48.95;;;;;;;11.79;nan;95971.44;5046064;28;20230;-59
2022/12/30 07:32:38;;;;;;;78.32;49.58;;;;;;;11.54;nan;95966.88;5046503;28;20675;-59
2022/12/30 07:35:08;;;;;;;87.05;49.55;;;;;;;11.56;nan;95970.25;5046981;28;20258;-59
2022/12/30 07:37:35;;;;;;;80.13;44.83;;;;;;;12.09;nan;95965.59;5047359;28;20245;-59
2022/12/30 07:40:02;;;;;;;83.50;46.83;;;;;;;12.36;nan;95958.97;5046363;28;20711;-61
2022/12/30 07:42:29;;;;;;;76.50;45.13;;;;;;;13.08;nan;95969.72;5046281;28;20326;-60
2022/12/30 07:44:55;;;;;;;74.82;43.17;;;;;;;13.63;nan;95964.66;5047117;28;20660;-59
2022/12/30 07:47:22;;;;;;;68.07;43.45;;;;;;;14.02;nan;95969.41;5046822;28;20220;-59
2022/12/30 07:49:49;;;;;;;71.47;45.60;;;;;;;13.93;nan;95967.13;5046018;28;20206;-59
2022/12/30 07:52:17;;;;;;;84.40;47.90;;;;;;;13.90;nan;95962.13;5044884;28;20814;-61
2022/12/30 07:54:44;;;;;;;76.00;43.78;;;;;;;13.28;nan;95958.09;5046578;28;20198;-59
2022/12/30 07:57:10;;;;;;;73.45;45.15;;;;;;;13.22;nan;95970.19;5047148;28;20206;-59
2022/12/30 07:59:37;;;;;;;80.60;46.35;;;;;;;13.79;nan;95962.47;5047148;28;20202;-61
2022/12/30 08:02:04;;;;;;;72.22;44.17;;;;;;;14.51;nan;95965.22;5045093;28;20209;-60
2022/12/30 08:04:30;;;;;;;68.93;42.28;;;;;;;15.19;nan;95959.34;5046191;28;20312;-59
2022/12/30 08:06:57;;;;;;;65.25;43.40;;;;;;;15.43;nan;95968.66;5047296;28;20601;-60
2022/12/30 08:09:25;;;;;;;64.82;39.63;;;;;;;15.30;nan;95958.06;5046250;28;20206;-59
2022/12/30 08:11:52;;;;;;;61.97;38.38;;;;;;;14.91;nan;95957.81;5045545;28;20209;-59
2022/12/30 08:14:19;;;;;;;66.00;37.70;;;;;;;14.56;nan;95955.69;5046605;28;20814;-58
2022/12/30 08:16:46;;;;;;;65.32;37.83;;;;;;;14.37;nan;95949.47;5045900;28;20465;-58
2022/12/30 08:19:12;;;;;;;67.65;37.72;;;;;;;14.09;nan;95957.25;5046979;28;20205;-60
2022/12/30 08:21:39;;;;;;;65.00;36.22;;;;;;;13.74;nan;95961.78;5047918;28;20799;-59
2022/12/30 08:24:06;;;;;;;61.17;37.33;;;;;;;13.27;nan;95968.34;5050268;28;20232;-60
2022/12/30 08:26:35;;;;;;;62.35;37.95;;;;;;;12.62;nan;95957.44;5050640;28;20197;-57
2022/12/30 08:29:02;;;;;;;63.80;38.17;;;;;;;12.00;nan;95960.72;5050193;28;20209;-58
2022/12/30 08:31:30;;;;;;;65.30;40.58;;;;;;;11.69;nan;95965.69;5049128;28;20327;-60
2022/12/30 08:33:57;;;;;;;64.20;41.63;;;;;;;11.47;nan;95967.88;5049322;28;20320;-59
2022/12/30 08:36:26;;;;;;;71.95;42.35;;;;;;;11.45;nan;95967.09;5049106;28;20282;-59
2022/12/30 08:38:55;;;;;;;65.40;40.45;;;;;;;11.58;nan;95963.41;5049934;28;20220;-60
2022/12/30 08:41:24;;;;;;;67.30;40.47;;;;;;;11.64;nan;95964.94;5048582;28;20730;-60
2022/12/30 08:43:54;;;;;;;60.50;39.63;;;;;;;11.74;nan;95973.22;5049901;28;20233;-59
2022/12/30 08:46:21;;;;;;;64.22;37.38;;;;;;;11.60;nan;95971.00;5050304;28;20277;-58
2022/12/30 08:48:48;;;;;;;61.40;39.22;;;;;;;11.33;nan;95975.00;5049024;28;20206;-59
2022/12/30 08:51:15;;;;;;;64.65;38.58;;;;;;;10.99;nan;95959.63;5049181;28;20221;-59
2022/12/30 08:53:42;;;;;;;59.03;40.65;;;;;;;10.91;nan;95957.22;5048419;28;20663;-60
2022/12/30 08:56:15;;;;;;;65.78;39.08;;;;;;;10.93;nan;95966.53;5049645;28;20204;-59
2022/12/30 08:58:41;;;;;;;64.07;40.50;;;;;;;11.12;nan;95957.66;5048876;28;20206;-60
2022/12/30 09:01:11;;;;;;;69.45;37.78;;;;;;;11.28;nan;95943.72;5049684;28;20209;-60
2022/12/30 09:03:38;;;;;;;62.67;40.40;;;;;;;11.55;nan;95963.47;5048865;28;20232;-60
2022/12/30 09:06:05;;;;;;;58.85;38.15;;;;;;;11.95;nan;95960.00;5050585;28;20274;-60
2022/12/30 09:08:33;;;;;;;55.75;36.90;;;;;;;12.38;nan;95962.28;5049998;28;20205;-58
2022/12/30 09:11:02;;;;;;;55.45;37.45;;;;;;;12.71;nan;95955.44;5048705;28;20209;-61
2022/12/30 09:13:29;;;;;;;61.72;39.65;;;;;;;13.03;nan;95956.25;5047505;28;20213;-58
2022/12/30 09:15:56;;;;;;;61.80;39.03;;;;;;;13.24;nan;95945.47;5048877;28;20210;-60
2022/12/30 09:18:25;;;;;;;65.25;37.45;;;;;;;13.30;nan;95937.63;5049738;28;20586;-61
2022/12/30 09:20:51;;;;;;;61.38;39.53;;;;;;;13.51;nan;95954.00;5049879;28;20237;-62
2022/12/30 09:23:18;;;;;;;67.82;42.28;;;;;;;13.70;nan;95949.16;5047802;28;20225;-59
2022/12/30 09:25:45;;;;;;;65.50;45.50;;;;;;;13.91;nan;95951.00;5048542;28;20285;-60
2022/12/30 09:28:12;;;;;;;56.10;40.60;;;;;;;13.90;nan;95936.56;5049180;28;20289;-60
2022/12/30 09:30:38;;;;;;;58.30;41.05;;;;;;;13.97;nan;95948.25;5049080;28;20205;-59
2022/12/30 09:33:05;;;;;;;59.13;37.03;;;;;;;13.81;nan;95939.44;5047793;28;20209;-60
2022/12/30 09:35:33;;;;;;;46.50;34.20;;;;;;;13.54;nan;95944.53;5048192;28;20243;-59
2022/12/30 09:38:00;;;;;;;51.58;33.83;;;;;;;13.72;nan;95944.81;5049089;28;20217;-60
2022/12/30 09:40:35;;;;;;;59.70;35.88;;;;;;;13.61;nan;95945.97;5048867;28;20225;-59
2022/12/30 09:43:16;;;;;;;64.20;36.67;;;;;;;13.50;nan;95919.97;5047541;28;20244;-60
2022/12/30 09:45:55;;;;;;;51.30;34.55;;;;;;;13.60;nan;95925.63;5047440;28;20716;-60
2022/12/30 09:48:26;;;;;;;54.47;36.72;;;;;;;13.62;nan;95913.63;5049196;28;20291;-60
2022/12/30 09:50:59;;;;;;;53.15;34.25;;;;;;;13.67;nan;95919.41;5048466;28;20216;-60
2022/12/30 09:53:37;;;;;;;48.72;30.23;;;;;;;13.62;nan;95913.63;5047222;28;21760;-58
2022/12/30 09:56:12;;;;;;;46.75;27.95;;;;;;;13.63;nan;95908.47;5049035;28;20224;-59
2022/12/30 09:58:39;;;;;;;40.95;26.58;;;;;;;13.33;nan;95912.00;5048779;28;20303;-59
2022/12/30 10:01:14;;;;;;;41.35;26.25;;;;;;;13.30;nan;95904.44;5047077;28;20213;-59
2022/12/30 10:03:41;;;;;;;43.15;25.75;;;;;;;13.16;nan;95909.09;5047463;28;20318;-59
2022/12/30 10:06:26;;;;;;;40.92;28.63;;;;;;;13.10;nan;95893.97;5046974;28;20366;-60
2022/12/30 10:09:25;;;;;;;48.10;29.83;;;;;;;13.29;nan;95892.56;5046519;28;22174;-59
2022/12/30 10:12:07;;;;;;;45.75;28.48;;;;;;;13.38;nan;95886.31;5046306;28;20201;-60
2022/12/30 10:14:45;;;;;;;43.92;28.58;;;;;;;13.45;nan;95891.19;5048582;28;20198;-60
2022/12/30 10:17:28;;;;;;;44.35;30.25;;;;;;;13.40;nan;95890.47;5045060;28;20216;-60
2022/12/30 10:20:03;;;;;;;45.58;28.67;;;;;;;13.42;nan;95888.72;5047684;28;20221;-60
2022/12/30 10:22:39;;;;;;;44.15;28.15;;;;;;;13.40;nan;95877.72;5047251;28;20506;-60
2022/12/30 10:25:20;;;;;;;39.50;29.85;;;;;;;13.41;nan;95876.84;5047008;28;20217;-59
2022/12/30 10:27:49;;;;;;;41.33;30.13;;;;;;;13.04;nan;95825.25;5047223;28;20217;-62
2022/12/30 10:30:18;;;;;;;48.42;30.60;;;;;;;13.17;nan;95870.78;5047018;28;20292;-58
2022/12/30 10:32:51;;;;;;;50.15;31.48;;;;;;;13.34;nan;95869.44;5046329;28;20733;-59
2022/12/30 10:35:22;;;;;;;46.15;31.05;;;;;;;13.47;nan;95860.50;5047680;28;20244;-64
2022/12/30 10:37:54;;;;;;;50.22;31.42;;;;;;;13.42;nan;95855.53;5046261;28;20741;-59
2022/12/30 10:40:24;;;;;;;52.35;30.52;;;;;;;13.40;nan;95853.91;5047839;28;20201;-59
2022/12/30 10:43:15;;;;;;;41.22;30.35;;;;;;;13.27;nan;95853.47;5045157;28;20754;-59
2022/12/30 10:46:03;;;;;;;50.33;31.75;;;;;;;13.08;nan;95849.78;5046074;28;20193;-59
2022/12/30 10:48:48;;;;;;;41.72;28.88;;;;;;;13.11;nan;95845.44;5047718;28;20205;-59
2022/12/30 10:51:18;;;;;;;46.05;31.38;;;;;;;13.27;nan;95839.00;5046503;28;20209;-59
2022/12/30 10:53:50;;;;;;;49.47;29.73;;;;;;;13.08;nan;95829.38;5045976;28;20208;-57
2022/12/30 10:56:22;;;;;;;48.05;31.80;;;;;;;13.13;nan;95835.16;5047658;28;20205;-61
2022/12/30 10:58:49;;;;;;;42.80;31.33;;;;;;;13.14;nan;95824.91;5048362;28;20201;-59
2022/12/30 11:01:20;;;;;;;44.03;30.83;;;;;;;13.04;nan;95830.34;5046989;28;22231;-59
2022/12/30 11:03:50;;;;;;;51.13;32.97;;;;;;;12.99;nan;95810.06;5045243;28;20320;-59
2022/12/30 11:06:21;;;;;;;57.80;31.85;;;;;;;12.97;nan;95816.09;5046474;28;20747;-59
2022/12/30 11:08:50;;;;;;;53.55;32.78;;;;;;;12.87;nan;95813.81;5047691;28;20576;-60
2022/12/30 11:11:18;;;;;;;50.15;32.85;;;;;;;12.82;nan;95810.59;5047199;28;20221;-60
2022/12/30 11:16:40;;;;;;;50.17;31.13;;;;;;;12.98;nan;95805.03;5047018;28;20205;-61
2022/12/30 11:19:23;;;;;;;44.45;31.40;;;;;;;13.07;nan;95807.28;5047455;28;20206;-58
2022/12/30 11:21:54;;;;;;;47.75;31.17;;;;;;;13.14;nan;95806.19;5045997;28;20233;-58
2022/12/30 11:24:23;;;;;;;48.38;31.25;;;;;;;13.13;nan;95794.31;5046574;28;20233;-60
2022/12/30 11:26:50;;;;;;;55.00;32.50;;;;;;;13.23;nan;95800.84;5046470;28;20679;-60
2022/12/30 11:29:19;;;;;;;48.78;30.90;;;;;;;13.24;nan;95792.31;5045555;28;20267;-61
2022/12/30 11:31:50;;;;;;;43.28;29.67;;;;;;;13.24;nan;95798.25;5047109;28;20262;-59
2022/12/30 11:34:21;;;;;;;46.22;29.60;;;;;;;13.23;nan;95799.13;5045474;28;20299;-58
2022/12/30 11:36:48;;;;;;;48.33;31.52;;;;;;;13.29;nan;95808.31;5045867;28;20214;-57
2022/12/30 11:39:33;;;;;;;46.47;31.05;;;;;;;13.20;nan;95800.94;5046211;28;20202;-61
2022/12/30 11:42:02;;;;;;;43.72;29.77;;;;;;;13.20;nan;95795.84;5046176;28;20295;-65
2022/12/30 11:44:31;;;;;;;41.20;29.05;;;;;;;13.22;nan;95786.41;5046993;28;20236;-60
2022/12/30 11:47:01;;;;;;;38.17;27.83;;;;;;;13.30;nan;95781.06;5046625;28;20205;-59
2022/12/30 11:49:32;;;;;;;38.75;29.35;;;;;;;13.31;nan;95791.22;5045810;28;20304;-61
2022/12/30 11:52:08;;;;;;;46.67;31.50;;;;;;;13.34;nan;95788.59;5046003;28;20340;-59
2022/12/30 11:54:43;;;;;;;53.63;29.45;;;;;;;13.17;nan;95789.09;5045869;28;21222;-60
2022/12/30 11:57:21;;;;;;;42.92;27.60;;;;;;;13.22;nan;95796.63;5051172;28;20689;-58
2022/12/30 11:59:49;;;;;;;40.78;28.75;;;;;;;13.14;nan;95796.00;5050067;28;20220;-58
2022/12/30 12:02:21;;;;;;;43.33;28.23;;;;;;;13.11;nan;95794.41;5049130;28;20194;-59
2022/12/30 12:04:48;;;;;;;40.05;27.30;;;;;;;13.03;nan;95792.97;5050621;28;20229;-58
2022/12/30 12:07:25;;;;;;;45.53;26.80;;;;;;;12.97;nan;95788.88;5051158;28;20593;-58
2022/12/30 12:10:01;;;;;;;38.20;26.85;;;;;;;12.92;nan;95780.53;5049898;28;20215;-58
2022/12/30 12:12:33;;;;;;;38.45;25.02;;;;;;;12.90;nan;95793.31;5049271;28;20630;-59
2022/12/30 12:15:06;;;;;;;48.00;26.88;;;;;;;12.94;nan;95789.81;5050559;28;20198;-60
2022/12/30 12:17:42;;;;;;;39.17;26.60;;;;;;;12.97;nan;95793.97;5050565;28;20198;-60
2022/12/30 12:20:18;;;;;;;40.40;26.13;;;;;;;12.77;nan;95792.03;5050408;28;20643;-58
2022/12/30 12:22:57;;;;;;;43.08;26.42;;;;;;;12.69;nan;95796.53;5048789;28;20248;-58
2022/12/30 12:25:33;;;;;;;38.85;24.13;;;;;;;12.56;nan;95797.78;5049884;28;20229;-60
2022/12/30 12:28:00;;;;;;;31.52;24.05;;;;;;;12.53;nan;95790.22;5050187;28;20209;-57
2022/12/30 12:30:40;;;;;;;35.95;23.77;;;;;;;12.59;nan;95800.25;5049250;28;20206;-58
2022/12/30 12:33:21;;;;;;;33.72;24.13;;;;;;;12.70;nan;95782.06;5049749;28;20209;-59
2022/12/30 12:35:53;;;;;;;35.55;22.80;;;;;;;12.79;nan;95777.53;5049215;28;20210;-58
2022/12/30 12:38:40;;;;;;;35.83;22.63;;;;;;;12.83;nan;95784.22;5050602;28;20585;-58
2022/12/30 12:41:38;;;;;;;36.10;24.00;;;;;;;12.94;nan;95782.16;5048971;28;20236;-60
2022/12/30 12:44:34;;;;;;;35.28;22.90;;;;;;;12.79;nan;95779.25;5047592;28;20222;-58
2022/12/30 12:47:17;;;;;;;33.25;21.77;;;;;;;12.63;nan;95789.06;5042438;28;20205;-58